Time;durP1;ratioP1;P1;durP2;ratioP2;P2;SDS_P1;SDS_P2;PMS_P1;PMS_P2;Temp;Humidity;BMP_temperature;BMP_pressure;BME280_temperature;BME280_humidity;BME280_pressure;Samples;Min_cycle;Max_cycle;Signal;HPM_P1;HPM_P2
2022/11/26 00:01:49;;;;;;;35.08;13.55;;;;;;;;;;5129519;28;20115;-73
2022/11/26 00:04:15;;;;;;;39.55;15.07;;;;;;;;;;5129219;28;20063;-73
2022/11/26 00:06:43;;;;;;;45.20;15.32;;;;;;;;;;5132723;28;20039;-72
2022/11/26 00:09:18;;;;;;;30.63;13.43;;;;;;;;;;5122957;28;20043;-73
2022/11/26 00:11:44;;;;;;;31.63;13.23;;;;;;;;;;5125096;28;20070;-72
2022/11/26 00:14:14;;;;;;;43.30;14.05;;;;;;;;;;5132840;28;20043;-73
2022/11/26 00:16:40;;;;;;;43.95;14.90;;;;;;;;;;5133835;28;20053;-73
2022/11/26 00:19:06;;;;;;;37.45;15.10;;;;;;;;;;5131061;28;20412;-72
2022/11/26 00:21:34;;;;;;;34.70;12.75;;;;;;;;;;5132381;28;20103;-73
2022/11/26 00:24:01;;;;;;;39.38;13.90;;;;;;;;;;5132511;28;20091;-73
2022/11/26 00:26:27;;;;;;;35.38;14.88;;;;;;;;;;5132252;28;20062;-72
2022/11/26 00:28:55;;;;;;;29.17;12.13;;;;;;;;;;5131967;28;20043;-72
2022/11/26 00:31:21;;;;;;;34.42;14.68;;;;;;;;;;5129660;28;20056;-72
2022/11/26 00:33:47;;;;;;;34.85;14.05;;;;;;;;;;5128019;28;20455;-73
2022/11/26 00:36:24;;;;;;;31.08;13.77;;;;;;;;;;5132834;28;20046;-73
2022/11/26 00:38:54;;;;;;;32.75;13.50;;;;;;;;;;5115270;28;20497;-73
2022/11/26 00:41:22;;;;;;;34.33;13.10;;;;;;;;;;5132137;28;20405;-73
2022/11/26 00:43:48;;;;;;;31.85;13.63;;;;;;;;;;5133514;28;20050;-73
2022/11/26 00:46:19;;;;;;;39.97;13.45;;;;;;;;;;5133187;28;20047;-73
2022/11/26 00:48:45;;;;;;;32.58;13.15;;;;;;;;;;5132042;28;20042;-73
2022/11/26 00:51:16;;;;;;;38.97;15.57;;;;;;;;;;5114209;28;20055;-73
2022/11/26 00:53:42;;;;;;;34.60;14.65;;;;;;;;;;5132869;28;20043;-73
2022/11/26 00:56:19;;;;;;;40.03;15.43;;;;;;;;;;5131679;28;20047;-73
2022/11/26 00:58:46;;;;;;;30.00;12.35;;;;;;;;;;5133299;28;20043;-73
2022/11/26 01:01:13;;;;;;;28.77;12.30;;;;;;;;;;5131667;28;20110;-72
2022/11/26 01:03:41;;;;;;;28.25;12.57;;;;;;;;;;5129795;28;20050;-72
2022/11/26 01:06:15;;;;;;;30.75;13.23;;;;;;;;;;5127482;27;20054;-72
2022/11/26 01:08:41;;;;;;;35.05;14.52;;;;;;;;;;5135212;27;20550;-72
2022/11/26 01:11:11;;;;;;;30.33;12.45;;;;;;;;;;5137027;27;20047;-73
2022/11/26 01:13:37;;;;;;;35.03;13.38;;;;;;;;;;5135730;27;20072;-73
2022/11/26 01:16:06;;;;;;;30.08;13.82;;;;;;;;;;5134102;27;20502;-73
2022/11/26 01:18:34;;;;;;;34.40;14.13;;;;;;;;;;5131873;27;20501;-73
2022/11/26 01:21:00;;;;;;;35.45;13.90;;;;;;;;;;5125867;27;20035;-72
2022/11/26 01:23:26;;;;;;;38.67;15.48;;;;;;;;;;5135208;27;20043;-72
2022/11/26 01:25:53;;;;;;;30.13;14.63;;;;;;;;;;5134230;27;20039;-72
2022/11/26 01:28:19;;;;;;;34.72;13.35;;;;;;;;;;5135423;27;20039;-72
2022/11/26 01:30:45;;;;;;;31.20;13.20;;;;;;;;;;5136518;27;20051;-73
2022/11/26 01:33:11;;;;;;;29.50;12.88;;;;;;;;;;5121444;27;20039;-72
2022/11/26 01:35:37;;;;;;;29.83;13.02;;;;;;;;;;5126552;27;20537;-72
2022/11/26 01:38:04;;;;;;;34.10;14.05;;;;;;;;;;5135454;27;20485;-73
2022/11/26 01:40:42;;;;;;;37.92;14.20;;;;;;;;;;5135638;27;20045;-73
2022/11/26 01:43:16;;;;;;;38.10;13.95;;;;;;;;;;5135651;27;20100;-72
2022/11/26 01:45:42;;;;;;;36.92;14.13;;;;;;;;;;5117293;27;20039;-72
2022/11/26 01:48:26;;;;;;;30.60;13.43;;;;;;;;;;5136401;27;20485;-72
2022/11/26 01:50:52;;;;;;;40.03;15.25;;;;;;;;;;5135603;27;20043;-73
2022/11/26 01:53:23;;;;;;;35.60;14.70;;;;;;;;;;5135547;27;20127;-72
2022/11/26 01:55:51;;;;;;;36.55;14.32;;;;;;;;;;5134910;27;20039;-73
2022/11/26 01:58:20;;;;;;;33.47;14.13;;;;;;;;;;5136202;27;20047;-72
2022/11/26 02:00:48;;;;;;;36.03;14.82;;;;;;;;;;5135674;27;20051;-73
2022/11/26 02:03:14;;;;;;;37.47;15.13;;;;;;;;;;5133533;27;20053;-73
2022/11/26 02:05:48;;;;;;;38.03;14.70;;;;;;;;;;5134153;27;20039;-73
2022/11/26 02:08:14;;;;;;;29.73;13.88;;;;;;;;;;5134872;27;20100;-73
2022/11/26 02:10:40;;;;;;;38.30;15.02;;;;;;;;;;5132686;27;20082;-73
2022/11/26 02:13:06;;;;;;;36.70;14.65;;;;;;;;;;5130628;27;20039;-72
2022/11/26 02:15:37;;;;;;;37.58;15.30;;;;;;;;;;5134560;27;20043;-72
2022/11/26 02:18:06;;;;;;;32.58;13.68;;;;;;;;;;5123396;27;20532;-73
2022/11/26 02:20:35;;;;;;;33.83;14.02;;;;;;;;;;5128343;27;20084;-73
2022/11/26 02:23:17;;;;;;;31.30;14.13;;;;;;;;;;5133971;27;20040;-72
2022/11/26 02:25:52;;;;;;;30.80;13.57;;;;;;;;;;5127907;27;20046;-73
2022/11/26 02:28:37;;;;;;;42.97;15.18;;;;;;;;;;5135485;27;20050;-73
2022/11/26 02:31:11;;;;;;;32.65;13.90;;;;;;;;;;5134208;27;20043;-73
2022/11/26 02:33:50;;;;;;;25.05;12.48;;;;;;;;;;5131702;27;20039;-73
2022/11/26 02:36:24;;;;;;;39.92;15.02;;;;;;;;;;5102426;27;20043;-73
2022/11/26 02:38:50;;;;;;;35.30;14.82;;;;;;;;;;5121915;27;20050;-73
2022/11/26 02:41:16;;;;;;;31.75;14.55;;;;;;;;;;5133297;27;20039;-73
2022/11/26 02:43:42;;;;;;;36.78;14.45;;;;;;;;;;5134101;27;20042;-72
2022/11/26 02:46:10;;;;;;;35.03;14.73;;;;;;;;;;5131439;27;20050;-73
2022/11/26 02:48:41;;;;;;;31.63;13.68;;;;;;;;;;5114589;28;20088;-73
2022/11/26 02:51:12;;;;;;;32.53;14.53;;;;;;;;;;5133891;27;20429;-73
2022/11/26 02:53:38;;;;;;;;;;;;;;;;;;5133047;27;20046;-73
2022/11/26 02:56:14;;;;;;;25.77;13.57;;;;;;;;;;5133158;27;21045;-73
2022/11/26 02:58:40;;;;;;;40.10;15.13;;;;;;;;;;5133160;27;20043;-73
2022/11/26 03:01:12;;;;;;;39.00;14.13;;;;;;;;;;5134603;27;20047;-73
2022/11/26 03:03:42;;;;;;;29.42;14.68;;;;;;;;;;5129414;27;20106;-72
2022/11/26 03:06:10;;;;;;;34.70;15.07;;;;;;;;;;5133256;27;20061;-73
2022/11/26 03:08:36;;;;;;;35.05;15.50;;;;;;;;;;5133935;27;20296;-73
2022/11/26 03:11:02;;;;;;;31.73;15.05;;;;;;;;;;5131871;27;20049;-73
2022/11/26 03:13:28;;;;;;;31.38;15.48;;;;;;;;;;5133747;27;20092;-73
2022/11/26 03:15:54;;;;;;;34.55;16.42;;;;;;;;;;5132246;27;20047;-73
2022/11/26 03:18:20;;;;;;;34.92;16.15;;;;;;;;;;5132484;27;20069;-72
2022/11/26 03:20:46;;;;;;;35.13;17.83;;;;;;;;;;5129910;27;20043;-73
2022/11/26 03:23:13;;;;;;;37.50;17.17;;;;;;;;;;5132790;27;20054;-72
2022/11/26 03:25:39;;;;;;;49.53;19.52;;;;;;;;;;5122251;27;20035;-72
2022/11/26 03:28:05;;;;;;;42.72;17.80;;;;;;;;;;5134477;27;20088;-72
2022/11/26 03:30:31;;;;;;;40.33;18.15;;;;;;;;;;5134339;27;20050;-72
2022/11/26 03:32:57;;;;;;;35.38;18.33;;;;;;;;;;5131652;27;20054;-73
2022/11/26 03:35:23;;;;;;;38.13;17.80;;;;;;;;;;5128371;27;20039;-73
2022/11/26 03:37:49;;;;;;;36.60;17.35;;;;;;;;;;5133124;27;20050;-73
2022/11/26 03:40:16;;;;;;;31.63;17.67;;;;;;;;;;5133254;27;20043;-72
2022/11/26 03:42:43;;;;;;;36.65;17.27;;;;;;;;;;5131727;27;20530;-73
2022/11/26 03:45:09;;;;;;;32.83;18.27;;;;;;;;;;5131254;27;20047;-73
2022/11/26 03:47:35;;;;;;;38.63;18.98;;;;;;;;;;5131932;27;20043;-73
2022/11/26 03:50:01;;;;;;;37.50;19.95;;;;;;;;;;5132808;27;20043;-72
2022/11/26 03:52:27;;;;;;;41.22;21.10;;;;;;;;;;5133174;27;20043;-73
2022/11/26 03:54:53;;;;;;;45.42;21.73;;;;;;;;;;5131589;27;20039;-72
2022/11/26 03:57:20;;;;;;;41.15;19.92;;;;;;;;;;5113886;28;20043;-73
2022/11/26 03:59:47;;;;;;;40.72;20.05;;;;;;;;;;5132347;27;20485;-72
2022/11/26 04:02:13;;;;;;;32.92;17.98;;;;;;;;;;5132527;27;20043;-73
2022/11/26 04:04:39;;;;;;;41.92;19.67;;;;;;;;;;5132869;28;20047;-73
2022/11/26 04:07:05;;;;;;;37.13;19.63;;;;;;;;;;5131937;28;20391;-72
2022/11/26 04:09:31;;;;;;;33.33;18.67;;;;;;;;;;5132168;28;20092;-73
2022/11/26 04:11:57;;;;;;;39.58;21.92;;;;;;;;;;5132586;28;20049;-73
2022/11/26 04:14:23;;;;;;;39.20;20.30;;;;;;;;;;5112988;28;20043;-73
2022/11/26 04:16:49;;;;;;;31.85;17.75;;;;;;;;;;5131550;28;20036;-73
2022/11/26 04:19:16;;;;;;;42.55;21.30;;;;;;;;;;5132485;28;20043;-73
2022/11/26 04:21:42;;;;;;;48.85;20.85;;;;;;;;;;5118160;28;20513;-73
2022/11/26 04:24:08;;;;;;;52.78;22.55;;;;;;;;;;5108658;28;20382;-73
2022/11/26 04:26:34;;;;;;;41.28;19.90;;;;;;;;;;5122601;28;20047;-73
2022/11/26 04:29:00;;;;;;;34.88;18.60;;;;;;;;;;5124602;28;20043;-73
2022/11/26 04:31:26;;;;;;;42.47;22.13;;;;;;;;;;5129012;28;20519;-73
2022/11/26 04:33:52;;;;;;;48.00;23.02;;;;;;;;;;5129997;28;20039;-73
2022/11/26 04:36:18;;;;;;;54.65;24.02;;;;;;;;;;5123956;28;20044;-73
2022/11/26 04:38:44;;;;;;;43.10;22.20;;;;;;;;;;5122429;28;20035;-73
2022/11/26 04:41:10;;;;;;;35.80;19.70;;;;;;;;;;5132453;27;20046;-73
2022/11/26 04:43:36;;;;;;;44.22;21.77;;;;;;;;;;5134638;27;20039;-73
2022/11/26 04:46:02;;;;;;;35.38;20.73;;;;;;;;;;5130809;27;20456;-73
2022/11/26 04:48:28;;;;;;;50.30;23.27;;;;;;;;;;5131877;27;20382;-73
2022/11/26 04:50:54;;;;;;;40.08;20.75;;;;;;;;;;5135444;27;20234;-73
2022/11/26 04:53:21;;;;;;;42.65;21.38;;;;;;;;;;5136294;27;20031;-73
2022/11/26 04:55:48;;;;;;;42.65;22.90;;;;;;;;;;5135521;27;20043;-73
2022/11/26 04:58:15;;;;;;;45.75;22.98;;;;;;;;;;5135340;27;20039;-73
2022/11/26 05:00:41;;;;;;;44.90;20.92;;;;;;;;;;5119918;27;20086;-73
2022/11/26 05:03:10;;;;;;;46.55;21.65;;;;;;;;;;5121981;27;20421;-73
2022/11/26 05:05:36;;;;;;;53.42;23.75;;;;;;;;;;5135489;27;20074;-73
2022/11/26 05:08:02;;;;;;;48.53;20.90;;;;;;;;;;5136662;27;20035;-73
2022/11/26 05:10:28;;;;;;;56.72;20.90;;;;;;;;;;5135914;27;20039;-73
2022/11/26 05:12:54;;;;;;;56.13;22.85;;;;;;;;;;5135775;27;20050;-72
2022/11/26 05:15:20;;;;;;;96.25;24.33;;;;;;;;;;5135935;27;20043;-73
2022/11/26 05:17:46;;;;;;;104.97;25.98;;;;;;;;;;5132888;27;20088;-73
2022/11/26 05:20:13;;;;;;;99.28;27.58;;;;;;;;;;5135141;27;20084;-73
2022/11/26 05:22:40;;;;;;;76.30;25.50;;;;;;;;;;5128541;27;20444;-73
2022/11/26 05:25:06;;;;;;;77.68;24.88;;;;;;;;;;5134130;27;20047;-73
2022/11/26 05:27:32;;;;;;;121.32;31.08;;;;;;;;;;5134724;27;20042;-73
2022/11/26 05:29:58;;;;;;;53.13;22.48;;;;;;;;;;5136811;27;20039;-73
2022/11/26 05:32:24;;;;;;;60.78;24.02;;;;;;;;;;5135181;27;20043;-73
2022/11/26 05:34:50;;;;;;;50.72;23.83;;;;;;;;;;5134738;27;20035;-73
2022/11/26 05:37:16;;;;;;;65.15;25.60;;;;;;;;;;5134214;27;20047;-73
2022/11/26 05:39:42;;;;;;;80.20;25.75;;;;;;;;;;5135324;27;20046;-73
2022/11/26 05:42:08;;;;;;;91.05;27.65;;;;;;;;;;5122907;27;20065;-73
2022/11/26 05:44:34;;;;;;;60.08;23.40;;;;;;;;;;5135150;27;20062;-73
2022/11/26 05:47:00;;;;;;;67.85;26.10;;;;;;;;;;5133725;27;20413;-73
2022/11/26 05:49:26;;;;;;;83.50;26.98;;;;;;;;;;5136410;27;20047;-73
2022/11/26 05:51:53;;;;;;;58.78;23.30;;;;;;;;;;5135125;27;20068;-73
2022/11/26 05:54:19;;;;;;;60.88;21.85;;;;;;;;;;5132613;27;20043;-73
2022/11/26 05:56:45;;;;;;;52.22;21.42;;;;;;;;;;5133931;27;20043;-73
2022/11/26 05:59:11;;;;;;;54.00;21.08;;;;;;;;;;5134527;27;20512;-73
2022/11/26 06:01:37;;;;;;;50.13;19.60;;;;;;;;;;5134585;27;20046;-72
2022/11/26 06:04:03;;;;;;;48.10;21.17;;;;;;;;;;5136203;27;20073;-73
2022/11/26 06:06:29;;;;;;;43.35;19.67;;;;;;;;;;5133552;27;20035;-72
2022/11/26 06:08:55;;;;;;;51.33;22.23;;;;;;;;;;5134969;27;20043;-72
2022/11/26 06:11:21;;;;;;;53.60;20.25;;;;;;;;;;5134917;27;20051;-72
2022/11/26 06:13:47;;;;;;;48.20;20.55;;;;;;;;;;5116290;27;20039;-72
2022/11/26 06:16:13;;;;;;;46.72;20.92;;;;;;;;;;5132509;27;20039;-72
2022/11/26 06:18:39;;;;;;;42.60;20.55;;;;;;;;;;5131295;27;20088;-72
2022/11/26 06:21:06;;;;;;;41.97;21.58;;;;;;;;;;5133784;27;20043;-71
2022/11/26 06:23:33;;;;;;;59.88;23.23;;;;;;;;;;5134635;27;20045;-72
2022/11/26 06:25:59;;;;;;;42.90;21.20;;;;;;;;;;5132309;27;20039;-71
2022/11/26 06:28:25;;;;;;;44.42;21.48;;;;;;;;;;5134003;27;20039;-72
2022/11/26 06:30:51;;;;;;;51.33;21.63;;;;;;;;;;5124374;27;20114;-72
2022/11/26 06:33:17;;;;;;;48.78;23.35;;;;;;;;;;5122256;27;20043;-72
2022/11/26 06:35:43;;;;;;;52.08;22.48;;;;;;;;;;5130391;27;20508;-71
2022/11/26 06:38:10;;;;;;;66.88;23.88;;;;;;;;;;5133345;27;20512;-72
2022/11/26 06:40:36;;;;;;;64.60;21.38;;;;;;;;;;5132152;27;20094;-72
2022/11/26 06:43:03;;;;;;;59.15;20.38;;;;;;;;;;5135582;27;20409;-72
2022/11/26 06:45:29;;;;;;;52.78;20.00;;;;;;;;;;5133692;27;20035;-72
2022/11/26 06:47:55;;;;;;;76.88;20.48;;;;;;;;;;5131427;27;20539;-72
2022/11/26 06:50:22;;;;;;;59.45;19.45;;;;;;;;;;5132347;27;20035;-72
2022/11/26 06:52:52;;;;;;;53.47;20.00;;;;;;;;;;5131166;27;20059;-72
2022/11/26 06:55:18;;;;;;;42.45;19.67;;;;;;;;;;5133818;27;20047;-72
2022/11/26 06:57:44;;;;;;;51.03;21.27;;;;;;;;;;5133649;27;20489;-72
2022/11/26 07:00:10;;;;;;;53.40;21.75;;;;;;;;;;5131478;27;20039;-72
2022/11/26 07:02:37;;;;;;;50.60;21.17;;;;;;;;;;5125986;27;20043;-73
2022/11/26 07:05:04;;;;;;;47.25;21.60;;;;;;;;;;5126088;27;20043;-72
2022/11/26 07:07:30;;;;;;;63.65;25.58;;;;;;;;;;5125309;27;20043;-72
2022/11/26 07:09:56;;;;;;;37.42;22.05;;;;;;;;;;5127126;27;20035;-72
2022/11/26 07:12:22;;;;;;;54.28;24.40;;;;;;;;;;5132012;27;20043;-72
2022/11/26 07:14:48;;;;;;;92.80;26.90;;;;;;;;;;5132413;27;20104;-72
2022/11/26 07:17:14;;;;;;;73.10;26.08;;;;;;;;;;5131677;27;20043;-73
2022/11/26 07:19:40;;;;;;;64.40;26.25;;;;;;;;;;5131390;27;20051;-72
2022/11/26 07:22:06;;;;;;;66.10;26.08;;;;;;;;;;5121471;27;20042;-73
2022/11/26 07:24:32;;;;;;;73.97;27.70;;;;;;;;;;5131992;27;20043;-72
2022/11/26 07:26:58;;;;;;;54.30;23.80;;;;;;;;;;5120464;27;20185;-72
2022/11/26 07:29:24;;;;;;;67.80;25.63;;;;;;;;;;5120995;27;20512;-72
2022/11/26 07:31:50;;;;;;;99.70;34.58;;;;;;;;;;5128240;27;20058;-72
2022/11/26 07:34:16;;;;;;;105.80;31.95;;;;;;;;;;5132172;27;20039;-72
2022/11/26 07:36:42;;;;;;;86.82;29.48;;;;;;;;;;5114729;27;20055;-72
2022/11/26 07:39:09;;;;;;;73.88;28.67;;;;;;;;;;5127152;27;20049;-72
2022/11/26 07:41:35;;;;;;;65.03;23.92;;;;;;;;;;5127535;27;20043;-72
2022/11/26 07:44:01;;;;;;;73.05;24.27;;;;;;;;;;5130010;27;20067;-69
2022/11/26 07:46:27;;;;;;;94.88;30.92;;;;;;;;;;5131479;27;20050;-72
2022/11/26 07:48:54;;;;;;;111.70;28.42;;;;;;;;;;5126644;27;20042;-72
2022/11/26 07:51:22;;;;;;;80.72;27.10;;;;;;;;;;5125398;27;20042;-72
2022/11/26 07:53:48;;;;;;;95.53;31.42;;;;;;;;;;5123266;27;20036;-72
2022/11/26 07:56:14;;;;;;;109.43;47.08;;;;;;;;;;5128382;27;20032;-72
2022/11/26 07:58:41;;;;;;;88.72;33.33;;;;;;;;;;5125111;27;20045;-72
2022/11/26 08:01:11;;;;;;;84.35;34.38;;;;;;;;;;5121994;27;20112;-72
2022/11/26 08:03:38;;;;;;;105.75;51.88;;;;;;;;;;5125927;27;20415;-71
2022/11/26 08:06:05;;;;;;;72.20;30.33;;;;;;;;;;5123107;28;20039;-71
2022/11/26 08:08:33;;;;;;;90.70;31.40;;;;;;;;;;5132616;28;20135;-72
2022/11/26 08:10:59;;;;;;;76.03;27.48;;;;;;;;;;5126126;28;20055;-71
2022/11/26 08:13:25;;;;;;;105.38;31.70;;;;;;;;;;5122679;28;20036;-72
2022/11/26 08:15:51;;;;;;;83.50;31.08;;;;;;;;;;5115070;28;20055;-72
2022/11/26 08:18:17;;;;;;;165.43;93.25;;;;;;;;;;5123404;27;20047;-73
2022/11/26 08:20:43;;;;;;;228.15;131.07;;;;;;;;;;5126355;27;20036;-73
2022/11/26 08:23:09;;;;;;;143.20;64.57;;;;;;;;;;5123712;27;20083;-73
2022/11/26 08:25:35;;;;;;;83.90;34.33;;;;;;;;;;5116671;28;20043;-73
2022/11/26 08:28:01;;;;;;;78.03;36.95;;;;;;;;;;5130807;27;20047;-75
2022/11/26 08:30:27;;;;;;;67.93;30.67;;;;;;;;;;5135819;27;20039;-73
2022/11/26 08:32:54;;;;;;;71.82;29.63;;;;;;;;;;5123642;27;20055;-71
2022/11/26 08:35:20;;;;;;;68.18;31.83;;;;;;;;;;5124936;27;20115;-72
2022/11/26 08:37:46;;;;;;;110.22;51.05;;;;;;;;;;5107790;27;20444;-71
2022/11/26 08:40:12;;;;;;;74.13;30.33;;;;;;;;;;5127202;27;20473;-71
2022/11/26 08:42:38;;;;;;;92.70;38.28;;;;;;;;;;5126552;27;20266;-71
2022/11/26 08:45:04;;;;;;;83.32;38.95;;;;;;;;;;5126563;27;20050;-71
2022/11/26 08:47:30;;;;;;;153.90;89.93;;;;;;;;;;5128055;27;20038;-71
2022/11/26 08:49:56;;;;;;;124.63;72.47;;;;;;;;;;5128603;27;20088;-71
2022/11/26 08:52:22;;;;;;;137.45;91.43;;;;;;;;;;5124659;27;20055;-71
2022/11/26 08:54:48;;;;;;;79.05;41.50;;;;;;;;;;5126493;27;20142;-71
2022/11/26 08:57:14;;;;;;;69.75;30.55;;;;;;;;;;5126777;27;20035;-71
2022/11/26 08:59:40;;;;;;;76.43;33.17;;;;;;;;;;5119795;27;20048;-71
2022/11/26 09:02:06;;;;;;;58.92;27.75;;;;;;;;;;5129778;27;20088;-71
2022/11/26 09:04:32;;;;;;;72.03;37.65;;;;;;;;;;5134572;27;20046;-71
2022/11/26 09:06:58;;;;;;;63.92;28.58;;;;;;;;;;5135263;27;20082;-71
2022/11/26 09:09:24;;;;;;;71.47;33.08;;;;;;;;;;5131881;27;20040;-72
2022/11/26 09:11:56;;;;;;;70.85;33.65;;;;;;;;;;5128800;27;20501;-72
2022/11/26 09:14:23;;;;;;;;;;;;;;;;;;5130771;27;20035;-73
2022/11/26 09:16:49;;;;;;;63.63;29.80;;;;;;;;;;5123189;27;19924;-71
2022/11/26 09:19:16;;;;;;;116.93;74.85;;;;;;;;;;5125598;27;20039;-71
2022/11/26 09:21:42;;;;;;;94.25;53.97;;;;;;;;;;5127242;27;20111;-71
2022/11/26 09:24:09;;;;;;;79.00;35.10;;;;;;;;;;5111691;27;20047;-71
2022/11/26 09:26:35;;;;;;;71.63;37.28;;;;;;;;;;5135961;27;20044;-71
2022/11/26 09:29:01;;;;;;;86.93;33.55;;;;;;;;;;5134194;27;20394;-72
2022/11/26 09:31:28;;;;;;;74.88;33.25;;;;;;;;;;5135653;27;20423;-72
2022/11/26 09:33:58;;;;;;;99.85;59.05;;;;;;;;;;5134701;27;20050;-71
2022/11/26 09:36:24;;;;;;;75.13;33.85;;;;;;;;;;5128873;27;20047;-72
2022/11/26 09:38:54;;;;;;;97.60;50.67;;;;;;;;;;5127921;27;20097;-71
2022/11/26 09:41:34;;;;;;;83.90;37.00;;;;;;;;;;5124364;27;20038;-71
2022/11/26 09:44:21;;;;;;;67.32;30.25;;;;;;;;;;5120598;27;20078;-71
2022/11/26 09:46:47;;;;;;;98.28;50.90;;;;;;;;;;5121705;27;20043;-71
2022/11/26 09:49:15;;;;;;;103.65;51.45;;;;;;;;;;5126954;27;20049;-71
2022/11/26 09:51:42;;;;;;;80.03;36.35;;;;;;;;;;5127806;27;20096;-71
2022/11/26 09:54:15;;;;;;;73.05;32.88;;;;;;;;;;5107973;27;22283;-72
2022/11/26 09:56:41;;;;;;;81.53;35.58;;;;;;;;;;5117471;27;20050;-71
2022/11/26 09:59:11;;;;;;;81.85;36.53;;;;;;;;;;5101552;27;20047;-71
2022/11/26 10:01:37;;;;;;;113.00;49.08;;;;;;;;;;5125667;27;20172;-71
2022/11/26 10:04:06;;;;;;;95.03;36.40;;;;;;;;;;5123459;27;20047;-72
2022/11/26 10:06:53;;;;;;;102.32;38.15;;;;;;;;;;5124403;27;20063;-72
2022/11/26 10:09:21;;;;;;;98.47;42.00;;;;;;;;;;5080705;27;20506;-72
2022/11/26 10:12:00;;;;;;;104.45;48.47;;;;;;;;;;5126393;27;20046;-71
2022/11/26 10:14:38;;;;;;;100.72;40.53;;;;;;;;;;5124648;27;20071;-71
2022/11/26 10:17:16;;;;;;;107.65;39.70;;;;;;;;;;5092299;28;20046;-72
2022/11/26 10:20:09;;;;;;;96.50;38.80;;;;;;;;;;5098707;27;20447;-71
2022/11/26 10:22:37;;;;;;;108.53;51.20;;;;;;;;;;5095941;27;20044;-71
2022/11/26 10:25:12;;;;;;;104.93;47.60;;;;;;;;;;5128691;27;20043;-72
2022/11/26 10:27:38;;;;;;;101.63;44.80;;;;;;;;;;5127909;27;20066;-72
2022/11/26 10:30:25;;;;;;;108.93;46.50;;;;;;;;;;5130861;27;20031;-73
2022/11/26 10:32:52;;;;;;;120.05;43.00;;;;;;;;;;5116960;27;20473;-72
2022/11/26 10:35:23;;;;;;;99.55;42.28;;;;;;;;;;5124374;27;20035;-71
2022/11/26 10:37:50;;;;;;;129.50;64.38;;;;;;;;;;5120706;27;20046;-72
2022/11/26 10:40:26;;;;;;;109.43;43.65;;;;;;;;;;5118986;27;20039;-72
2022/11/26 10:43:01;;;;;;;210.90;167.32;;;;;;;;;;5128926;27;20050;-72
2022/11/26 10:45:35;;;;;;;124.28;49.28;;;;;;;;;;5132523;27;20055;-72
2022/11/26 10:48:20;;;;;;;110.30;47.95;;;;;;;;;;5113422;27;20050;-72
2022/11/26 10:50:55;;;;;;;118.70;43.88;;;;;;;;;;5119163;27;20130;-72
2022/11/26 10:53:22;;;;;;;131.60;54.95;;;;;;;;;;5126521;27;20051;-72
2022/11/26 10:55:49;;;;;;;126.25;43.17;;;;;;;;;;5121179;27;20118;-72
2022/11/26 10:58:17;;;;;;;105.55;42.92;;;;;;;;;;5123769;27;20393;-72
2022/11/26 11:00:49;;;;;;;120.72;50.47;;;;;;;;;;5122495;27;20442;-72
2022/11/26 11:03:22;;;;;;;120.85;48.33;;;;;;;;;;5133288;27;20043;-72
2022/11/26 11:05:48;;;;;;;108.53;43.90;;;;;;;;;;5114527;27;20035;-72
2022/11/26 11:08:27;;;;;;;107.93;43.40;;;;;;;;;;5131659;27;20035;-73
2022/11/26 11:10:54;;;;;;;127.80;53.50;;;;;;;;;;5132952;27;20100;-72
2022/11/26 11:13:20;;;;;;;103.53;43.47;;;;;;;;;;5130813;27;20043;-71
2022/11/26 11:15:46;;;;;;;128.68;52.30;;;;;;;;;;5132489;27;20038;-72
2022/11/26 11:18:19;;;;;;;109.28;47.42;;;;;;;;;;5133057;27;20129;-72
2022/11/26 11:20:52;;;;;;;163.40;100.80;;;;;;;;;;5121341;27;20044;-72
2022/11/26 11:23:23;;;;;;;128.88;48.92;;;;;;;;;;5124669;27;20493;-72
2022/11/26 11:26:00;;;;;;;133.20;73.45;;;;;;;;;;5127608;27;20062;-72
2022/11/26 11:28:27;;;;;;;120.72;48.65;;;;;;;;;;5122032;27;20039;-71
2022/11/26 11:31:02;;;;;;;118.60;57.53;;;;;;;;;;5117055;27;20088;-72
2022/11/26 11:33:29;;;;;;;158.27;93.35;;;;;;;;;;5116713;27;20069;-72
2022/11/26 11:35:58;;;;;;;105.88;46.83;;;;;;;;;;5127496;27;20047;-72
2022/11/26 11:38:25;;;;;;;125.05;64.93;;;;;;;;;;5120018;27;20043;-72
2022/11/26 11:40:51;;;;;;;179.07;107.38;;;;;;;;;;5128204;27;20040;-71
2022/11/26 11:43:19;;;;;;;202.50;128.30;;;;;;;;;;5127623;27;20031;-71
2022/11/26 11:46:07;;;;;;;168.60;112.53;;;;;;;;;;5132907;27;20046;-72
2022/11/26 11:48:49;;;;;;;162.80;107.93;;;;;;;;;;5111930;28;20082;-72
2022/11/26 11:51:40;;;;;;;227.98;177.82;;;;;;;;;;5117189;27;20035;-72
2022/11/26 11:54:19;;;;;;;287.23;235.53;;;;;;;;;;5126236;27;20039;-72
2022/11/26 11:56:49;;;;;;;190.52;133.27;;;;;;;;;;5133005;27;20123;-72
2022/11/26 11:59:35;;;;;;;518.78;392.75;;;;;;;;;;5132223;27;20051;-73
2022/11/26 12:02:21;;;;;;;318.08;237.73;;;;;;;;;;5096487;28;20134;-72
2022/11/26 12:05:08;;;;;;;228.65;148.40;;;;;;;;;;5124136;27;20054;-72
2022/11/26 12:07:38;;;;;;;137.07;83.97;;;;;;;;;;5085992;28;20099;-72
2022/11/26 12:10:07;;;;;;;122.82;77.78;;;;;;;;;;5124389;28;20044;-73
2022/11/26 12:12:35;;;;;;;118.85;60.33;;;;;;;;;;5122719;28;20452;-72
2022/11/26 12:15:20;;;;;;;307.65;239.50;;;;;;;;;;5131101;28;20515;-72
2022/11/26 12:17:46;;;;;;;293.80;212.35;;;;;;;;;;5132974;28;20122;-72
2022/11/26 12:20:30;;;;;;;185.60;119.22;;;;;;;;;;5130797;28;20122;-72
2022/11/26 12:23:02;;;;;;;123.78;67.68;;;;;;;;;;5132378;28;20039;-71
2022/11/26 12:25:31;;;;;;;581.33;261.30;;;;;;;;;;5133051;28;20135;-72
2022/11/26 12:28:02;;;;;;;211.82;105.80;;;;;;;;;;5132762;28;20482;-72
2022/11/26 12:30:28;;;;;;;;;;;;;;;;;;5133185;28;20043;-72
2022/11/26 12:33:11;;;;;;;127.32;85.28;;;;;;;;;;5131184;28;19923;-72
2022/11/26 12:35:47;;;;;;;122.32;82.70;;;;;;;;;;5127390;28;20043;-71
2022/11/26 12:38:18;;;;;;;137.82;107.18;;;;;;;;;;5131673;28;20039;-71
2022/11/26 12:40:47;;;;;;;94.72;64.25;;;;;;;;;;5132096;28;20047;-72
2022/11/26 12:43:15;;;;;;;140.18;86.65;;;;;;;;;;5132964;28;20110;-72
2022/11/26 12:45:51;;;;;;;100.30;48.38;;;;;;;;;;5130333;28;20043;-72
2022/11/26 12:48:35;;;;;;;79.45;44.47;;;;;;;;;;5132147;28;20047;-71
2022/11/26 12:51:14;;;;;;;97.72;59.60;;;;;;;;;;5133338;28;20047;-71
2022/11/26 12:53:47;;;;;;;123.75;92.68;;;;;;;;;;5133370;28;20176;-72
2022/11/26 12:56:22;;;;;;;144.98;114.22;;;;;;;;;;5132512;28;20046;-71
2022/11/26 12:58:54;;;;;;;114.43;85.90;;;;;;;;;;5132685;28;20054;-71
2022/11/26 13:01:20;;;;;;;136.98;102.40;;;;;;;;;;5132550;28;20043;-72
2022/11/26 13:03:46;;;;;;;120.95;81.25;;;;;;;;;;5133132;27;20062;-72
2022/11/26 13:06:12;;;;;;;130.93;94.63;;;;;;;;;;5134935;27;20416;-72
2022/11/26 13:08:47;;;;;;;109.13;69.65;;;;;;;;;;5135608;27;20042;-72
2022/11/26 13:11:38;;;;;;;96.88;52.90;;;;;;;;;;5134426;27;20122;-71
2022/11/26 13:14:04;;;;;;;;;;;;;;;;;;5120430;27;20393;-71
2022/11/26 13:17:03;;;;;;;91.45;50.60;;;;;;;;;;5119780;27;19919;-72
2022/11/26 13:19:32;;;;;;;114.22;78.15;;;;;;;;;;5030181;28;20436;-72
2022/11/26 13:22:04;;;;;;;85.20;46.53;;;;;;;;;;5015794;28;20065;-72
2022/11/26 13:24:30;;;;;;;79.03;45.70;;;;;;;;;;5031908;28;20116;-72
2022/11/26 13:27:01;;;;;;;79.20;41.67;;;;;;;;;;5030761;28;20038;-71
2022/11/26 13:29:27;;;;;;;74.93;45.30;;;;;;;;;;5031686;28;20148;-72
2022/11/26 13:31:53;;;;;;;82.60;41.95;;;;;;;;;;5032411;28;20508;-71
2022/11/26 13:34:25;;;;;;;71.53;33.92;;;;;;;;;;5022301;28;20065;-71
2022/11/26 13:37:10;;;;;;;66.30;32.30;;;;;;;;;;5027340;28;20496;-72
2022/11/26 13:39:39;;;;;;;64.38;34.45;;;;;;;;;;5026254;28;20041;-71
2022/11/26 13:42:17;;;;;;;73.55;40.70;;;;;;;;;;5031966;28;20085;-72
2022/11/26 13:44:50;;;;;;;113.78;69.68;;;;;;;;;;5031343;28;20041;-71
2022/11/26 13:47:38;;;;;;;75.70;48.58;;;;;;;;;;5028536;28;20061;-71
2022/11/26 13:50:13;;;;;;;73.60;42.72;;;;;;;;;;5030743;28;20052;-71
2022/11/26 13:52:44;;;;;;;101.05;68.82;;;;;;;;;;5012255;28;20049;-71
2022/11/26 13:55:22;;;;;;;70.03;37.55;;;;;;;;;;5068332;28;20085;-71
2022/11/26 13:57:55;;;;;;;62.35;33.28;;;;;;;;;;5116846;27;20043;-71
2022/11/26 14:00:23;;;;;;;73.47;45.70;;;;;;;;;;5132966;27;20051;-72
2022/11/26 14:02:49;;;;;;;88.95;48.42;;;;;;;;;;5132836;27;20058;-72
2022/11/26 14:05:16;;;;;;;111.30;64.90;;;;;;;;;;5133286;27;20454;-71
2022/11/26 14:07:43;;;;;;;84.45;49.38;;;;;;;;;;5127626;27;20032;-71
2022/11/26 14:10:27;;;;;;;74.78;37.55;;;;;;;;;;5124114;27;20052;-71
2022/11/26 14:13:02;;;;;;;63.72;33.20;;;;;;;;;;5130135;27;20406;-71
2022/11/26 14:15:40;;;;;;;76.18;44.42;;;;;;;;;;5131884;27;20057;-71
2022/11/26 14:18:07;;;;;;;69.43;39.42;;;;;;;;;;5133121;27;20042;-71
2022/11/26 14:20:59;;;;;;;63.22;34.40;;;;;;;;;;5133124;27;20038;-71
2022/11/26 14:23:43;;;;;;;59.90;30.58;;;;;;;;;;5098245;27;20047;-71
2022/11/26 14:26:10;;;;;;;54.85;27.88;;;;;;;;;;5125744;27;20043;-71